Time;durP1;ratioP1;P1;durP2;ratioP2;P2;SDS_P1;SDS_P2;PMS_P1;PMS_P2;Temp;Humidity;BMP_temperature;BMP_pressure;BME280_temperature;BME280_humidity;BME280_pressure;Samples;Min_cycle;Max_cycle;Signal;HPM_P1;HPM_P2
2022/11/27 00:02:20;;;;;;;15.98;6.38;;;;;;;9.55;68.35;101667.63;10367093;28;20161;-68
2022/11/27 00:07:22;;;;;;;17.02;5.25;;;;;;;9.53;68.36;101659.72;10368346;28;20060;-68
2022/11/27 00:12:23;;;;;;;13.23;6.70;;;;;;;9.51;68.51;101660.84;10364136;28;20085;-66
2022/11/27 00:17:25;;;;;;;10.15;5.95;;;;;;;9.49;68.26;101647.56;10370183;28;20665;-66
2022/11/27 00:22:26;;;;;;;15.05;5.82;;;;;;;9.42;68.31;101634.81;10364781;28;20141;-66
2022/11/27 00:27:28;;;;;;;16.58;6.88;;;;;;;9.49;68.44;101633.31;10362360;28;20089;-67
2022/11/27 00:32:29;;;;;;;14.93;6.60;;;;;;;9.49;68.27;101627.94;10383536;28;20133;-66
2022/11/27 00:37:30;;;;;;;14.45;7.18;;;;;;;9.49;68.23;101623.41;10378156;28;20132;-66
2022/11/27 00:42:32;;;;;;;12.65;5.68;;;;;;;9.48;68.17;101618.19;10370826;28;20138;-67
2022/11/27 00:47:33;;;;;;;15.65;7.13;;;;;;;9.46;68.31;101609.44;10382478;28;20054;-66
2022/11/27 00:52:35;;;;;;;17.20;6.95;;;;;;;9.43;68.31;101607.00;10372468;28;20133;-66
2022/11/27 00:57:36;;;;;;;17.33;7.20;;;;;;;9.43;68.41;101604.31;10364462;28;20117;-66
2022/11/27 01:02:37;;;;;;;16.42;6.97;;;;;;;9.45;68.28;101600.50;10362547;28;20133;-65
2022/11/27 01:07:39;;;;;;;11.02;6.05;;;;;;;9.46;68.09;101596.00;10370375;28;20045;-65
2022/11/27 01:12:40;;;;;;;20.48;6.30;;;;;;;9.46;68.14;101594.19;10368266;28;20516;-67
2022/11/27 01:17:42;;;;;;;14.63;6.68;;;;;;;9.48;68.19;101591.34;10377483;28;20057;-66
2022/11/27 01:22:43;;;;;;;13.98;6.40;;;;;;;9.47;68.10;101584.28;10374875;28;20416;-65
2022/11/27 01:27:44;;;;;;;15.15;6.80;;;;;;;9.45;68.19;101572.84;10370831;28;20144;-67
2022/11/27 01:32:46;;;;;;;15.07;7.10;;;;;;;9.41;68.18;101571.41;10373884;28;20064;-66
2022/11/27 01:37:47;;;;;;;12.52;7.20;;;;;;;9.39;68.52;101582.28;10372967;28;20129;-66
2022/11/27 01:42:49;;;;;;;15.52;6.90;;;;;;;9.33;68.65;101574.78;10371500;28;20148;-67
2022/11/27 01:47:55;;;;;;;10.43;5.38;;;;;;;9.31;68.66;101569.53;10378638;28;20157;-65
2022/11/27 01:53:12;;;;;;;11.45;5.60;;;;;;;9.29;68.47;101568.84;10370032;28;20065;-64
2022/11/27 01:58:18;;;;;;;11.80;5.40;;;;;;;9.19;68.73;101569.81;10381404;28;20133;-65
2022/11/27 02:03:21;;;;;;;16.25;6.10;;;;;;;9.08;69.08;101578.78;10375303;28;20501;-64
2022/11/27 02:08:22;;;;;;;19.98;6.30;;;;;;;9.06;69.10;101578.09;10371842;28;20046;-64
2022/11/27 02:13:37;;;;;;;13.50;6.30;;;;;;;9.08;69.38;101568.94;10364043;28;20078;-64
2022/11/27 02:19:18;;;;;;;13.30;4.40;;;;;;;9.04;69.00;101559.44;10356165;28;20117;-64
2022/11/27 02:24:47;;;;;;;12.63;5.95;;;;;;;9.04;69.26;101558.59;10372424;28;20061;-64
2022/11/27 02:29:55;;;;;;;11.80;5.25;;;;;;;9.03;69.26;101548.88;10364527;28;20042;-64
2022/11/27 02:35:30;;;;;;;11.73;5.20;;;;;;;9.04;69.21;101547.88;10364752;28;20049;-64
2022/11/27 02:40:47;;;;;;;17.63;5.72;;;;;;;9.00;69.35;101538.41;10379379;28;20141;-65
2022/11/27 02:45:50;;;;;;;11.45;5.65;;;;;;;9.08;68.88;101543.94;10379396;28;20038;-65
2022/11/27 02:50:53;;;;;;;14.15;5.90;;;;;;;9.08;69.05;101535.88;10366301;28;20052;-65
2022/11/27 02:55:57;;;;;;;11.52;5.75;;;;;;;8.98;69.46;101525.13;10377156;28;20140;-65
2022/11/27 03:00:59;;;;;;;15.25;5.65;;;;;;;9.01;69.34;101532.06;10359645;28;20111;-65
2022/11/27 03:06:08;;;;;;;18.23;6.10;;;;;;;8.98;69.30;101516.25;10374911;28;20153;-65
2022/11/27 03:11:12;;;;;;;16.13;5.90;;;;;;;8.94;69.37;101521.03;10375414;28;20138;-65
2022/11/27 03:16:20;;;;;;;13.85;6.10;;;;;;;8.93;69.78;101525.53;10366002;28;20132;-65
2022/11/27 03:21:27;;;;;;;;;;;;;;;8.83;69.93;101529.19;10375048;28;20056;-65
2022/11/27 03:26:28;;;;;;;16.48;6.03;;;;;;;8.79;69.81;101522.38;10364438;28;20008;-65
2022/11/27 03:31:30;;;;;;;14.18;6.82;;;;;;;8.83;69.43;101508.56;10366996;28;20109;-64
2022/11/27 03:36:31;;;;;;;16.10;6.00;;;;;;;8.82;69.67;101512.22;10370485;28;20104;-65
2022/11/27 03:41:42;;;;;;;17.30;6.50;;;;;;;8.82;69.70;101508.72;10369517;28;20590;-65
2022/11/27 03:46:59;;;;;;;16.92;6.30;;;;;;;8.79;69.67;101495.56;10356785;28;20129;-65
2022/11/27 03:52:13;;;;;;;19.90;7.35;;;;;;;8.72;69.92;101492.59;10371376;28;20050;-65
2022/11/27 03:57:33;;;;;;;25.20;7.60;;;;;;;8.66;69.92;101488.59;10366948;28;20133;-65
2022/11/27 04:02:47;;;;;;;21.05;8.05;;;;;;;8.63;69.86;101482.66;10372925;28;20136;-65
2022/11/27 04:07:48;;;;;;;17.98;9.73;;;;;;;8.62;70.04;101484.50;10370509;28;20049;-65
2022/11/27 04:12:50;;;;;;;19.90;9.52;;;;;;;8.59;69.44;101482.13;10364184;28;20050;-65
2022/11/27 04:17:51;;;;;;;26.52;10.43;;;;;;;8.50;69.91;101475.72;10368372;28;20076;-65
2022/11/27 04:22:52;;;;;;;19.88;9.73;;;;;;;8.36;69.88;101486.75;10378034;28;20066;-65
2022/11/27 04:27:54;;;;;;;25.45;9.52;;;;;;;8.19;70.10;101485.53;10372151;28;20081;-65
2022/11/27 04:32:55;;;;;;;26.00;9.27;;;;;;;8.06;70.28;101483.06;10364290;28;20073;-65
2022/11/27 04:37:57;;;;;;;18.30;9.02;;;;;;;7.93;69.62;101463.69;10371934;28;20055;-66
2022/11/27 04:42:58;;;;;;;18.52;8.65;;;;;;;7.76;69.99;101451.75;10374600;28;20069;-66
2022/11/27 04:47:59;;;;;;;22.75;9.80;;;;;;;7.62;69.79;101460.06;10361528;28;20146;-65
2022/11/27 04:53:01;;;;;;;20.40;8.73;;;;;;;7.50;69.73;101459.28;10372511;28;20072;-65
2022/11/27 04:58:02;;;;;;;28.63;9.27;;;;;;;7.34;70.83;101463.22;10364929;28;20133;-65
2022/11/27 05:03:03;;;;;;;24.70;9.95;;;;;;;7.22;70.43;101444.69;10363391;28;20070;-65
2022/11/27 05:08:05;;;;;;;26.27;9.05;;;;;;;7.05;70.08;101462.97;10372873;28;20117;-66
2022/11/27 05:13:06;;;;;;;21.70;9.27;;;;;;;6.94;69.97;101463.00;10368250;28;20146;-66
2022/11/27 05:18:08;;;;;;;18.48;8.73;;;;;;;6.81;70.94;101451.59;10371977;28;20083;-66
2022/11/27 05:23:09;;;;;;;18.98;9.20;;;;;;;6.69;70.95;101451.59;10381558;28;20093;-65
2022/11/27 05:28:10;;;;;;;20.10;8.48;;;;;;;6.60;70.69;101452.38;10378163;28;20137;-65
2022/11/27 05:33:13;;;;;;;19.50;9.50;;;;;;;6.48;70.57;101446.19;10378997;28;20149;-65
2022/11/27 05:38:15;;;;;;;25.63;9.60;;;;;;;6.39;71.00;101425.53;10377617;28;20085;-65
2022/11/27 05:43:16;;;;;;;18.30;9.90;;;;;;;6.28;71.13;101433.53;10380197;28;20077;-64
2022/11/27 05:48:17;;;;;;;22.75;11.60;;;;;;;6.09;71.57;101451.00;10374889;28;20054;-65
2022/11/27 05:53:19;;;;;;;26.65;12.32;;;;;;;6.12;71.33;101444.56;10374744;28;20712;-64
2022/11/27 05:58:20;;;;;;;29.77;14.10;;;;;;;6.14;71.27;101445.31;10373154;28;20089;-65
2022/11/27 06:03:22;;;;;;;28.08;13.75;;;;;;;6.18;71.93;101435.25;10375050;28;20049;-64
2022/11/27 06:08:23;;;;;;;25.45;10.60;;;;;;;6.18;71.22;101424.56;10372504;28;20116;-64
2022/11/27 06:13:24;;;;;;;24.40;10.38;;;;;;;6.17;71.82;101413.03;10374490;28;20051;-66
2022/11/27 06:18:26;;;;;;;20.90;9.90;;;;;;;6.18;71.88;101411.22;10372393;28;20132;-65
2022/11/27 06:23:27;;;;;;;25.98;9.98;;;;;;;6.13;72.05;101417.78;10373026;28;20145;-66
2022/11/27 06:28:28;;;;;;;22.67;10.18;;;;;;;6.15;71.77;101402.47;10366287;28;20144;-66
2022/11/27 06:33:30;;;;;;;23.98;9.60;;;;;;;6.15;71.51;101396.31;10367018;28;20463;-65
2022/11/27 06:38:36;;;;;;;20.65;9.55;;;;;;;6.06;71.45;101403.22;10364487;28;20481;-66
2022/11/27 06:43:38;;;;;;;25.00;10.38;;;;;;;6.00;72.24;101405.50;10376750;28;20069;-68
2022/11/27 06:48:40;;;;;;;27.35;11.05;;;;;;;6.06;72.13;101389.88;10370026;28;20120;-66
2022/11/27 06:53:42;;;;;;;27.85;10.95;;;;;;;6.06;71.86;101392.56;10373017;28;20394;-65
2022/11/27 06:58:44;;;;;;;24.23;10.02;;;;;;;6.09;72.45;101386.94;10368325;28;20128;-67
2022/11/27 07:03:45;;;;;;;24.85;10.48;;;;;;;6.14;72.21;101384.78;10357906;28;20420;-69
2022/11/27 07:08:47;;;;;;;25.55;9.80;;;;;;;6.15;72.23;101385.63;10366081;28;20128;-67
2022/11/27 07:13:49;;;;;;;24.80;9.05;;;;;;;6.18;72.15;101379.19;10350135;28;20065;-67
2022/11/27 07:18:55;;;;;;;20.58;8.75;;;;;;;6.15;71.78;101383.78;10362833;28;20136;-68
2022/11/27 07:23:56;;;;;;;28.02;10.13;;;;;;;6.13;71.54;101360.88;10358215;28;20088;-68
2022/11/27 07:28:58;;;;;;;26.10;10.80;;;;;;;6.11;71.92;101363.66;10373376;28;20497;-67
2022/11/27 07:33:59;;;;;;;22.70;10.90;;;;;;;6.20;72.47;101371.91;10370006;28;20144;-66
2022/11/27 07:39:01;;;;;;;26.02;9.45;;;;;;;6.13;72.35;101379.56;10363576;28;20120;-64
2022/11/27 07:44:02;;;;;;;27.38;9.50;;;;;;;6.05;73.12;101382.00;10373854;28;20065;-64
2022/11/27 07:49:03;;;;;;;20.10;9.75;;;;;;;6.00;72.20;101387.66;10363601;28;20050;-64
2022/11/27 07:54:05;;;;;;;21.58;8.73;;;;;;;5.95;72.29;101385.38;10362946;28;20069;-64
2022/11/27 07:59:06;;;;;;;19.30;8.90;;;;;;;6.04;72.99;101380.28;10367249;28;20136;-64
2022/11/27 08:04:08;;;;;;;20.05;9.73;;;;;;;6.07;72.53;101364.88;10367614;28;20169;-63
2022/11/27 08:09:09;;;;;;;23.55;11.45;;;;;;;6.09;72.71;101352.25;10364369;28;20568;-63
2022/11/27 08:14:12;;;;;;;22.60;10.48;;;;;;;6.18;72.95;101337.34;10363901;28;20133;-63
2022/11/27 08:19:13;;;;;;;21.60;10.02;;;;;;;5.99;73.12;101345.13;10360813;28;20054;-63
2022/11/27 08:24:15;;;;;;;18.48;9.23;;;;;;;6.01;73.31;101341.34;10354436;28;20147;-63
2022/11/27 08:29:16;;;;;;;18.35;8.90;;;;;;;6.13;72.59;101347.53;10369287;28;20078;-63
2022/11/27 08:34:18;;;;;;;18.25;9.45;;;;;;;6.09;73.11;101346.06;10362258;28;20054;-63
2022/11/27 08:39:19;;;;;;;19.98;8.68;;;;;;;6.24;73.31;101330.63;10360138;28;20144;-64
2022/11/27 08:44:20;;;;;;;21.33;9.18;;;;;;;6.35;73.41;101331.47;10368581;28;20101;-63
2022/11/27 08:49:22;;;;;;;23.83;9.38;;;;;;;6.46;72.55;101329.78;10371178;28;20050;-64
2022/11/27 08:54:23;;;;;;;16.63;8.75;;;;;;;6.58;72.91;101323.41;10378337;28;20584;-64
2022/11/27 08:59:25;;;;;;;17.67;8.40;;;;;;;6.62;72.50;101337.38;10369150;28;20080;-64
2022/11/27 09:04:27;;;;;;;14.88;8.05;;;;;;;6.69;72.63;101330.53;10369796;28;20050;-64
2022/11/27 09:09:29;;;;;;;20.70;8.38;;;;;;;6.82;72.91;101314.34;10371850;28;20057;-71
2022/11/27 09:14:30;;;;;;;17.00;8.38;;;;;;;6.94;72.42;101319.50;10375774;28;20069;-64
2022/11/27 09:19:31;;;;;;;18.50;8.35;;;;;;;7.07;72.93;101311.31;10364433;28;20069;-64
2022/11/27 09:24:33;;;;;;;16.15;8.13;;;;;;;6.97;71.94;101304.19;10359629;28;20144;-64
2022/11/27 09:29:34;;;;;;;17.00;8.68;;;;;;;6.89;72.80;101305.69;10366531;28;20050;-63
2022/11/27 09:34:36;;;;;;;17.25;8.23;;;;;;;6.95;72.63;101305.19;10370426;28;20168;-63
2022/11/27 09:39:42;;;;;;;13.20;7.18;;;;;;;7.05;71.79;101299.91;10365431;28;20044;-63
2022/11/27 09:44:54;;;;;;;21.02;8.52;;;;;;;7.28;72.12;101292.59;10371484;28;20049;-64
2022/11/27 09:50:06;;;;;;;15.63;7.80;;;;;;;7.33;71.62;101281.50;10375638;28;20140;-64
2022/11/27 09:55:23;;;;;;;13.68;7.22;;;;;;;7.45;72.32;101269.75;10365447;28;20498;-63
2022/11/27 10:00:25;;;;;;;16.63;7.50;;;;;;;7.78;71.51;101264.25;10369838;28;20172;-64
2022/11/27 10:05:44;;;;;;;14.40;6.65;;;;;;;7.88;71.63;101243.72;10367902;28;20092;-63
2022/11/27 10:11:16;;;;;;;12.57;5.57;;;;;;;7.98;71.57;101238.38;10366949;28;20069;-65
2022/11/27 10:16:41;;;;;;;10.50;6.40;;;;;;;8.07;71.20;101235.72;10367798;28;20084;-63
2022/11/27 10:22:13;;;;;;;12.35;5.60;;;;;;;8.22;71.16;101219.28;10371603;28;20057;-64
2022/11/27 10:27:43;;;;;;;11.27;5.60;;;;;;;8.57;70.67;101212.53;10366631;28;20514;-64
2022/11/27 10:32:47;;;;;;;10.18;6.05;;;;;;;8.71;70.37;101209.44;10364913;28;20054;-63
2022/11/27 10:38:10;;;;;;;13.52;7.78;;;;;;;8.82;69.88;101192.34;10360074;28;20149;-65
2022/11/27 10:43:13;;;;;;;11.60;6.75;;;;;;;9.06;69.46;101191.88;10355214;28;20136;-64
2022/11/27 10:48:15;;;;;;;10.23;6.07;;;;;;;9.19;69.24;101183.53;10357103;28;20077;-66
2022/11/27 10:53:30;;;;;;;8.93;5.10;;;;;;;9.39;68.68;101170.88;10367188;28;20129;-67
2022/11/27 10:58:59;;;;;;;11.75;5.57;;;;;;;9.51;68.66;101164.31;10360502;28;20043;-63
2022/11/27 11:04:08;;;;;;;12.48;5.13;;;;;;;9.65;68.07;101149.53;10356100;28;20073;-62
2022/11/27 11:09:33;;;;;;;11.85;5.32;;;;;;;9.61;68.17;101151.69;10364486;28;21232;-62
2022/11/27 11:14:34;;;;;;;9.07;5.55;;;;;;;9.52;67.98;101139.19;10363519;28;20061;-62
2022/11/27 11:19:37;;;;;;;8.63;5.20;;;;;;;9.62;67.83;101125.69;10359614;28;20061;-63
2022/11/27 11:24:45;;;;;;;11.52;5.80;;;;;;;9.82;67.24;101113.00;10359556;28;20077;-62
2022/11/27 11:30:12;;;;;;;;;;;;;;;9.92;67.58;101085.06;10363393;28;20132;-63
2022/11/27 11:35:26;;;;;;;11.02;5.18;;;;;;;10.12;67.24;101071.47;10357188;28;19936;-63
2022/11/27 11:40:33;;;;;;;8.38;4.47;;;;;;;10.27;67.20;101074.44;10372397;28;20145;-62
2022/11/27 11:45:44;;;;;;;8.63;4.47;;;;;;;10.52;66.59;101068.28;10364010;28;20078;-63
2022/11/27 11:50:52;;;;;;;7.35;3.72;;;;;;;10.65;66.19;101062.47;10351110;28;20056;-63
2022/11/27 11:56:30;;;;;;;8.25;3.63;;;;;;;10.83;65.76;101042.75;10368951;28;20038;-64
2022/11/27 12:01:53;;;;;;;7.30;4.03;;;;;;;10.86;65.24;101047.78;10365154;28;20077;-64
2022/11/27 12:07:03;;;;;;;8.80;4.15;;;;;;;11.06;65.04;101048.41;10361744;28;20625;-63
2022/11/27 12:12:32;;;;;;;7.57;3.50;;;;;;;10.86;64.94;101045.09;10363367;28;20133;-64
2022/11/27 12:17:33;;;;;;;5.22;3.13;;;;;;;10.74;65.14;101039.16;10356719;28;20145;-62
2022/11/27 12:23:12;;;;;;;9.27;4.00;;;;;;;10.75;64.84;101037.31;10364150;28;20145;-63
2022/11/27 12:28:30;;;;;;;7.07;3.65;;;;;;;10.61;64.84;101030.69;10369127;28;20038;-62
2022/11/27 12:33:46;;;;;;;7.00;3.30;;;;;;;10.91;63.92;101022.09;10363236;28;20058;-62
2022/11/27 12:39:01;;;;;;;7.07;3.47;;;;;;;10.85;64.00;101003.91;10367298;28;20125;-62
2022/11/27 12:44:16;;;;;;;7.55;4.43;;;;;;;10.90;63.35;101004.28;10371595;28;20145;-63
2022/11/27 12:49:24;;;;;;;7.93;3.47;;;;;;;11.04;63.20;100997.44;10362834;28;20113;-64
2022/11/27 12:54:43;;;;;;;7.72;3.60;;;;;;;11.05;62.62;100990.19;10368579;28;20060;-62
2022/11/27 12:59:49;;;;;;;6.32;3.20;;;;;;;11.23;62.62;100969.38;10360240;28;20081;-62
2022/11/27 13:05:04;;;;;;;5.00;2.95;;;;;;;11.44;62.08;100960.84;10363808;28;20046;-63
2022/11/27 13:10:30;;;;;;;6.80;4.50;;;;;;;11.58;62.11;100953.97;10366549;28;20144;-63
2022/11/27 13:15:47;;;;;;;5.68;3.67;;;;;;;11.64;61.50;100947.06;10361269;28;20136;-63
2022/11/27 13:20:50;;;;;;;;;;;;;;;11.66;62.77;100942.34;10365793;28;20165;-62
2022/11/27 13:25:54;;;;;;;7.28;3.40;;;;;;;11.64;62.31;100944.38;10361301;28;19971;-62
2022/11/27 13:31:00;;;;;;;4.43;2.60;;;;;;;11.63;62.20;100935.47;10359072;28;20176;-63
2022/11/27 13:36:03;;;;;;;2.97;1.90;;;;;;;11.63;61.83;100931.91;10365260;28;20065;-62
2022/11/27 13:41:05;;;;;;;6.80;2.83;;;;;;;11.60;61.50;100916.09;10371109;28;20101;-62
2022/11/27 13:46:14;;;;;;;4.38;2.17;;;;;;;11.57;61.54;100911.91;10371952;28;20046;-62
2022/11/27 13:51:31;;;;;;;7.75;3.17;;;;;;;11.55;61.05;100891.53;10341018;28;20049;-62
2022/11/27 13:56:33;;;;;;;4.85;3.22;;;;;;;11.65;61.19;100895.75;10378323;28;20051;-63
2022/11/27 14:01:35;;;;;;;5.82;2.63;;;;;;;11.56;60.87;100885.97;10369242;28;20066;-62
2022/11/27 14:06:37;;;;;;;9.00;2.80;;;;;;;11.56;60.88;100875.22;10370468;28;20605;-62
2022/11/27 14:11:43;;;;;;;7.88;3.20;;;;;;;11.52;60.79;100874.69;10371522;28;20120;-63
2022/11/27 14:17:01;;;;;;;4.20;2.63;;;;;;;11.55;60.82;100878.91;10357253;28;20074;-65
2022/11/27 14:22:14;;;;;;;5.10;3.00;;;;;;;11.51;60.73;100853.31;10370282;28;20136;-67
2022/11/27 14:27:21;;;;;;;6.65;2.58;;;;;;;11.44;60.95;100837.03;10371156;28;20145;-66
2022/11/27 14:32:22;;;;;;;4.45;2.20;;;;;;;11.40;61.06;100814.16;10370134;28;20084;-66
2022/11/27 14:37:27;;;;;;;4.10;2.13;;;;;;;11.24;61.17;100806.09;10368220;28;20532;-63
2022/11/27 14:42:29;;;;;;;2.83;1.75;;;;;;;11.21;61.09;100796.50;10369367;28;20466;-70
2022/11/27 14:47:39;;;;;;;4.53;2.27;;;;;;;11.03;61.41;100775.13;10362828;28;20104;-66
2022/11/27 14:52:43;;;;;;;3.95;2.28;;;;;;;10.87;61.46;100767.06;10370436;28;20045;-71
2022/11/27 14:57:47;;;;;;;2.83;2.00;;;;;;;10.78;61.30;100781.53;10368809;28;20173;-70
2022/11/27 15:02:50;;;;;;;8.70;4.38;;;;;;;10.70;61.17;100793.09;10366070;28;20038;-71
2022/11/27 15:07:54;;;;;;;3.63;2.20;;;;;;;10.62;61.08;100814.59;10366916;28;20156;-69
2022/11/27 15:12:58;;;;;;;4.47;2.00;;;;;;;10.66;60.85;100802.50;10350020;28;20421;-72
2022/11/27 15:18:05;;;;;;;5.03;2.33;;;;;;;10.70;60.84;100793.09;10361554;28;20645;-70
2022/11/27 15:23:18;;;;;;;4.68;3.08;;;;;;;10.52;61.30;100756.47;10382654;28;20077;-69
2022/11/27 15:28:26;;;;;;;3.65;2.33;;;;;;;10.45;61.27;100784.16;10358376;28;20501;-67
2022/11/27 15:33:30;;;;;;;5.28;2.95;;;;;;;10.48;61.43;100771.22;10362005;28;20165;-66
2022/11/27 15:38:31;;;;;;;4.10;2.58;;;;;;;10.39;61.45;100774.91;10376223;28;20045;-67
2022/11/27 15:43:32;;;;;;;6.55;2.33;;;;;;;10.32;61.87;100758.59;10358854;28;20494;-67
2022/11/27 15:48:34;;;;;;;5.47;2.95;;;;;;;10.30;61.65;100757.91;10358529;28;20560;-66
2022/11/27 15:53:35;;;;;;;6.05;2.53;;;;;;;10.34;61.34;100758.44;10363455;28;20050;-67
2022/11/27 15:58:37;;;;;;;4.78;3.20;;;;;;;10.28;61.77;100772.50;10356262;28;20055;-69
2022/11/27 16:03:39;;;;;;;7.25;3.60;;;;;;;10.18;61.58;100777.16;10368322;28;20049;-67
2022/11/27 16:08:40;;;;;;;7.15;3.38;;;;;;;10.13;61.92;100761.56;10363107;28;20133;-67
2022/11/27 16:13:42;;;;;;;5.25;3.33;;;;;;;10.05;62.00;100775.78;10360253;28;20049;-69
2022/11/27 16:18:43;;;;;;;8.88;4.28;;;;;;;9.98;62.19;100774.75;10369656;28;20074;-70
2022/11/27 16:23:45;;;;;;;8.88;4.50;;;;;;;9.99;62.09;100749.59;10370389;28;20453;-68
2022/11/27 16:28:47;;;;;;;6.88;4.47;;;;;;;9.83;62.30;100744.13;10378498;28;20042;-66
2022/11/27 16:33:48;;;;;;;7.75;5.32;;;;;;;9.83;62.41;100739.59;10389748;28;20064;-65
2022/11/27 16:38:53;;;;;;;8.13;5.00;;;;;;;9.80;62.48;100737.25;10388188;28;20038;-67
2022/11/27 16:43:55;;;;;;;7.25;5.18;;;;;;;9.70;62.93;100729.31;10386107;28;20100;-67
2022/11/27 16:48:58;;;;;;;9.23;6.00;;;;;;;9.75;62.60;100742.25;10388040;28;20046;-67
2022/11/27 16:54:04;;;;;;;8.18;5.25;;;;;;;9.70;62.96;100747.28;10390349;28;20078;-66
2022/11/27 16:59:07;;;;;;;10.27;6.40;;;;;;;9.71;62.93;100728.28;10390448;28;20053;-66
2022/11/27 17:04:15;;;;;;;11.68;7.32;;;;;;;9.73;62.92;100714.72;10383671;28;20045;-67
2022/11/27 17:09:16;;;;;;;;;;;;;;;9.68;63.32;100707.16;10397837;28;20054;-67
2022/11/27 17:14:19;;;;;;;8.70;5.20;;;;;;;9.64;63.56;100704.97;10447677;22;19935;-90
2022/11/27 17:19:22;;;;;;;14.20;6.47;;;;;;;9.60;63.34;100700.94;10408428;28;20111;-88
2022/11/27 17:24:25;;;;;;;7.88;5.40;;;;;;;9.55;63.69;100693.34;10419751;28;20054;-91
2022/11/27 17:29:26;;;;;;;10.43;5.70;;;;;;;9.55;63.70;100692.50;10398823;28;20058;-92
2022/11/27 17:34:33;;;;;;;8.05;5.60;;;;;;;9.51;63.43;100690.13;10433136;28;20064;-89
2022/11/27 17:39:39;;;;;;;9.60;6.57;;;;;;;9.53;63.53;100695.34;10421420;28;20044;-90
2022/11/27 17:44:41;;;;;;;9.50;5.97;;;;;;;9.59;63.44;100692.00;10423458;22;20049;-68
2022/11/27 17:49:43;;;;;;;10.23;6.57;;;;;;;9.48;63.66;100705.75;10397037;28;20096;-63
2022/11/27 17:54:44;;;;;;;9.70;6.47;;;;;;;9.42;63.71;100682.19;10389845;28;20041;-64
2022/11/27 17:59:45;;;;;;;10.10;7.15;;;;;;;9.51;63.63;100673.19;10387563;28;20148;-64
2022/11/27 18:04:47;;;;;;;8.70;6.65;;;;;;;9.54;63.72;100659.47;10386082;28;20037;-66
2022/11/27 18:09:52;;;;;;;10.02;6.50;;;;;;;9.50;63.71;100650.91;10385975;28;20450;-61
2022/11/27 18:14:56;;;;;;;9.85;6.25;;;;;;;9.51;63.66;100644.50;10382980;28;20133;-64
2022/11/27 18:20:02;;;;;;;11.20;6.90;;;;;;;9.41;63.93;100634.91;10384868;28;20050;-64
2022/11/27 18:25:04;;;;;;;9.82;6.57;;;;;;;9.45;64.05;100622.88;10385803;28;20160;-64
2022/11/27 18:30:06;;;;;;;11.68;7.07;;;;;;;9.45;64.24;100607.59;10369935;28;20570;-64
2022/11/27 18:35:09;;;;;;;14.02;7.53;;;;;;;9.40;64.38;100598.34;10389227;28;20080;-65
2022/11/27 18:40:11;;;;;;;9.65;7.07;;;;;;;9.43;64.28;100598.03;10389192;28;20085;-66
2022/11/27 18:45:13;;;;;;;9.73;6.18;;;;;;;9.43;64.09;100598.03;10383179;28;20104;-65
2022/11/27 18:50:34;;;;;;;10.73;6.43;;;;;;;9.39;64.34;100592.16;10391610;28;20053;-66
2022/11/27 18:55:35;;;;;;;12.50;7.28;;;;;;;9.44;64.19;100573.72;10388086;28;20440;-67
2022/11/27 19:00:37;;;;;;;11.45;6.68;;;;;;;9.48;64.25;100580.44;10388011;28;20124;-67
2022/11/27 19:05:38;;;;;;;10.52;7.00;;;;;;;9.37;64.21;100567.31;10384657;28;20626;-67
2022/11/27 19:10:40;;;;;;;9.05;6.07;;;;;;;9.42;64.24;100572.19;10385560;28;20436;-69
2022/11/27 19:15:41;;;;;;;10.52;7.40;;;;;;;9.45;64.19;100574.56;10388825;28;20057;-64
2022/11/27 19:20:43;;;;;;;10.20;6.38;;;;;;;9.31;64.13;100567.97;10390990;28;20065;-67
2022/11/27 19:25:44;;;;;;;11.15;6.25;;;;;;;9.29;64.47;100554.72;10376878;28;20081;-66
2022/11/27 19:30:46;;;;;;;10.98;6.75;;;;;;;9.35;64.12;100560.44;10381251;28;20128;-66
2022/11/27 19:35:47;;;;;;;10.80;7.00;;;;;;;9.30;64.00;100560.91;10392323;28;20528;-66
2022/11/27 19:40:48;;;;;;;7.55;5.70;;;;;;;9.22;64.41;100539.44;10386915;28;20051;-66
2022/11/27 19:45:50;;;;;;;10.32;7.18;;;;;;;9.25;64.37;100526.53;10390013;28;20077;-67
2022/11/27 19:50:52;;;;;;;9.77;7.82;;;;;;;9.23;64.44;100525.03;10380016;28;20397;-67
2022/11/27 19:55:54;;;;;;;10.55;7.07;;;;;;;9.30;64.17;100502.78;10367127;28;20136;-64
2022/11/27 20:01:04;;;;;;;9.98;6.60;;;;;;;9.27;64.46;100497.72;10392492;28;20084;-65
2022/11/27 20:06:12;;;;;;;12.50;7.43;;;;;;;9.32;64.08;100494.53;10389194;28;20054;-65
2022/11/27 20:11:18;;;;;;;9.95;6.03;;;;;;;9.29;64.66;100478.78;10388840;28;20208;-66
2022/11/27 20:16:20;;;;;;;9.15;5.68;;;;;;;9.28;64.57;100487.81;10387316;28;20060;-66
2022/11/27 20:21:24;;;;;;;10.50;6.78;;;;;;;9.19;64.55;100495.03;10388490;28;20050;-67
2022/11/27 20:26:27;;;;;;;13.50;8.15;;;;;;;9.13;64.26;100493.81;10389494;28;20137;-67
2022/11/27 20:31:30;;;;;;;11.60;6.57;;;;;;;9.12;64.59;100485.94;10389044;28;20046;-65
2022/11/27 20:36:34;;;;;;;10.30;6.70;;;;;;;9.03;64.82;100479.72;10386385;28;20056;-68
2022/11/27 20:41:36;;;;;;;10.27;6.68;;;;;;;9.01;64.83;100475.53;10388998;28;20049;-68
2022/11/27 20:46:37;;;;;;;10.65;6.95;;;;;;;8.98;64.76;100479.34;10389382;28;20073;-68
2022/11/27 20:51:39;;;;;;;13.10;7.18;;;;;;;9.02;64.37;100478.03;10388499;28;20133;-68
2022/11/27 20:56:43;;;;;;;10.48;6.53;;;;;;;9.04;64.39;100464.47;10389353;28;20050;-68
2022/11/27 21:01:45;;;;;;;9.50;6.70;;;;;;;9.09;63.84;100467.50;10394264;28;20041;-68
2022/11/27 21:06:46;;;;;;;15.13;6.43;;;;;;;9.05;64.00;100472.34;10387985;28;20058;-66
2022/11/27 21:11:48;;;;;;;10.82;6.50;;;;;;;9.12;63.74;100464.47;10391793;28;20722;-67
2022/11/27 21:16:50;;;;;;;11.18;7.22;;;;;;;9.14;63.75;100467.84;10401320;28;20050;-64
2022/11/27 21:21:53;;;;;;;9.93;6.40;;;;;;;9.13;63.82;100458.97;10399496;28;20052;-67
2022/11/27 21:26:55;;;;;;;10.88;7.20;;;;;;;9.12;63.64;100445.72;10386728;28;20132;-66
2022/11/27 21:31:56;;;;;;;11.70;6.38;;;;;;;9.07;63.93;100432.81;10397315;28;20042;-67
2022/11/27 21:36:58;;;;;;;10.07;6.28;;;;;;;9.02;64.15;100429.75;10394442;28;20052;-65
2022/11/27 21:41:59;;;;;;;9.45;6.45;;;;;;;9.00;63.92;100423.72;10389596;28;20076;-67
2022/11/27 21:47:02;;;;;;;10.02;6.60;;;;;;;9.02;63.79;100431.63;10396975;28;20571;-67
2022/11/27 21:52:05;;;;;;;13.65;7.28;;;;;;;8.86;64.31;100417.16;10390651;28;20053;-67
2022/11/27 21:57:06;;;;;;;10.65;6.78;;;;;;;8.92;64.17;100427.22;10390990;28;20054;-67
2022/11/27 22:02:10;;;;;;;10.63;6.93;;;;;;;8.95;63.74;100412.69;10385191;28;20072;-67
2022/11/27 22:07:11;;;;;;;11.82;7.22;;;;;;;9.03;63.43;100401.13;10401872;28;20061;-65
2022/11/27 22:12:13;;;;;;;13.32;7.03;;;;;;;8.99;63.40;100386.38;10407339;28;20129;-66
2022/11/27 22:17:14;;;;;;;11.85;7.22;;;;;;;8.97;63.55;100380.34;10392645;28;20085;-66
2022/11/27 22:22:16;;;;;;;11.95;7.07;;;;;;;8.87;63.78;100397.41;10409311;28;20056;-67
2022/11/27 22:27:17;;;;;;;9.52;6.60;;;;;;;8.87;63.93;100392.03;10405085;28;20605;-67
2022/11/27 22:32:19;;;;;;;11.82;7.13;;;;;;;8.83;63.60;100390.69;10396450;28;20049;-67
2022/11/27 22:37:20;;;;;;;11.20;7.88;;;;;;;8.78;63.70;100389.50;10410744;28;20781;-67
2022/11/27 22:42:21;;;;;;;11.50;7.50;;;;;;;8.74;63.74;100389.00;10402065;28;20057;-66
2022/11/27 22:47:23;;;;;;;10.15;6.85;;;;;;;8.73;63.46;100387.31;10398874;28;20124;-65
2022/11/27 22:52:24;;;;;;;14.77;7.40;;;;;;;8.62;63.68;100385.75;10395696;28;20137;-66
2022/11/27 22:57:25;;;;;;;12.50;6.82;;;;;;;8.63;63.53;100389.28;10381669;28;20073;-67
2022/11/27 23:02:27;;;;;;;12.00;7.45;;;;;;;8.56;63.80;100385.59;10397640;28;20141;-66
2022/11/27 23:07:28;;;;;;;11.10;6.85;;;;;;;8.54;63.57;100364.31;10380460;28;20073;-66
2022/11/27 23:12:30;;;;;;;12.90;8.00;;;;;;;8.54;63.48;100359.78;10400140;28;20121;-65
2022/11/27 23:17:31;;;;;;;11.43;7.43;;;;;;;8.60;63.59;100352.94;10399750;28;20118;-66
2022/11/27 23:22:32;;;;;;;10.93;7.22;;;;;;;8.60;63.66;100334.19;10393197;28;20061;-66
2022/11/27 23:27:34;;;;;;;13.20;8.23;;;;;;;8.59;63.29;100331.66;10404113;28;20065;-67